Overview Statistics Trail Chart Weather Telemetry Raw packets
 

This is the latest recevied weather packets stored in our database for station/object N7IGG. If no packets are shown the sender has not sent any weather packets the latest 10 day(s).

<< 70 71 72 73 74 75 76 >>
Time Temp. Humidity Pressure Rain* Wind** Luminosity Snow
1777673984 20° C 63% 1015.2 hPa 0 mm - 574 W/m² -
1777673682 19.44° C 66% 1015.4 hPa 0 mm - 555 W/m² -
1777673380 19.44° C 66% 1015.4 hPa 0 mm - 499 W/m² -
1777673077 20.56° C 62% 1015.3 hPa 0 mm - 469 W/m² -
1777672773 20.56° C 62% 1015.4 hPa 0 mm - 525 W/m² -
1777672470 20° C 64% 1015.4 hPa 0 mm - 539 W/m² -
1777672165 19.44° C 67% 1015.6 hPa 0 mm - 563 W/m² -
1777671861 20° C 66% 1015.5 hPa 0 mm - 630 W/m² -
1777671556 19.44° C 68% 1015.5 hPa 0 mm - 593 W/m² -
1777671254 18.33° C 70% 1015.4 hPa 0 mm - 586 W/m² -
1777670949 18.89° C 71% 1015.5 hPa 0 mm - 576 W/m² -
1777670646 18.33° C 71% 1015.6 hPa 0 mm - 581 W/m² -
1777670353 18.33° C 72% 1015.7 hPa 0 mm - 614 W/m² -
1777670040 18.33° C 72% 1015.8 hPa 0 mm - 689 W/m² -
1777669738 17.78° C 74% 1015.6 hPa 0 mm - 747 W/m² -
1777669434 17.22° C 74% 1015.7 hPa 0 mm - 653 W/m² -
1777669131 17.22° C 72% 1015.7 hPa 0 mm - 675 W/m² -
1777668828 18.33° C 70% 1015.6 hPa 0 mm - 292 W/m² -
1777668525 17.22° C 77% 1015.7 hPa 0 mm - 733 W/m² -
1777668221 16.11° C 78% 1015.9 hPa 0 mm - 674 W/m² -
1777667924 15.56° C 78% 1016 hPa 0 mm - 535 W/m² -
1777667615 15.56° C 77% 1016.1 hPa 0 mm - 292 W/m² -
1777667311 18.33° C 72% 1015.8 hPa 0 mm - 433 W/m² -
1777667009 18.33° C 73% 1015.9 hPa 0 mm - 487 W/m² -
1777666706 17.78° C 76% 1015.9 hPa 0 mm - 657 W/m² -

* Rain latest hour (hover to see other rain measurements)
** Current wind speed in m/s (hover to see current wind gust speed)